Terminal Aerodrome Forecast
Issued by NWS Cleveland, OH

Home | Current Version | Previous Version | Text Only | Print | Product List | Glossary On
Versions: 1 2 3 4 5 6 7 8 9 10 11 12 13 14 15 16 17 18
540
FTUS41 KCLE 241121
TAFCAK
TAF
KCAK 241121Z 2412/2512 28005KT 5SM -RA BR OVC003
     FM241400 32006KT 1 1/2SM -DZ BR OVC003
     FM241600 32008KT 3SM BR OVC007
     FM250200 27006KT P6SM OVC007
     FM250800 22005KT 4SM BR OVC015=

USA.gov is the U.S. government's official web portal to all federal, state and local government web resources and services.